createdAt,value
2019-01-17T00:03:26.002Z,2.00
2019-01-17T00:07:47.818Z,1.33
2019-01-17T00:12:12.747Z,5.67
2019-01-17T00:16:39.074Z,6.83
2019-01-17T00:20:53.652Z,4.37
2019-01-17T00:25:15.978Z,2.83
2019-01-17T00:29:43.755Z,2.13
2019-01-17T00:33:58.643Z,7.83
2019-01-17T00:38:14.316Z,3.57
2019-01-17T00:42:42.783Z,4.13
2019-01-17T00:47:01.025Z,2.00
2019-01-17T00:51:22.761Z,2.00
2019-01-17T00:55:35.535Z,1.43
2019-01-17T01:00:00.926Z,1.90
2019-01-17T01:04:24.268Z,8.77
2019-01-17T01:08:44.418Z,5.77
2019-01-17T01:12:59.027Z,2.33
2019-01-17T01:17:31.320Z,2.20
2019-01-17T01:21:53.038Z,4.73
2019-01-17T01:26:15.066Z,5.33
2019-01-17T01:30:32.172Z,10.23
2019-01-17T01:34:46.402Z,3.23
2019-01-17T01:39:12.532Z,6.70
2019-01-17T01:43:31.952Z,4.87
2019-01-17T01:48:03.601Z,2.27
2019-01-17T01:52:28.873Z,8.37
2019-01-17T01:56:32.692Z,7.87
2019-01-17T02:00:36.618Z,2.00
2019-01-17T02:04:39.983Z,4.00
2019-01-17T02:08:44.227Z,3.23
2019-01-17T02:12:47.656Z,6.83
2019-01-17T02:16:51.728Z,4.43
2019-01-17T02:20:55.193Z,10.30
2019-01-17T02:24:58.534Z,1.93
2019-01-17T02:29:01.976Z,5.70
2019-01-17T02:33:05.840Z,2.70
2019-01-17T02:37:09.205Z,3.43
2019-01-17T02:41:12.634Z,5.50
2019-01-17T02:45:16.067Z,2.83
2019-01-17T02:49:19.373Z,3.00
2019-01-17T02:53:23.363Z,7.50
2019-01-17T02:57:46.355Z,4.10
2019-01-17T03:01:49.695Z,6.70
2019-01-17T03:05:52.999Z,8.57
2019-01-17T03:09:56.297Z,9.33
2019-01-17T03:13:59.579Z,5.33
2019-01-17T03:18:02.958Z,9.37
2019-01-17T03:22:06.250Z,7.10
2019-01-17T03:26:09.553Z,8.80
2019-01-17T03:30:14.196Z,10.77
2019-01-17T03:34:17.498Z,13.90
2019-01-17T03:38:20.815Z,9.77
2019-01-17T03:42:24.118Z,13.80
2019-01-17T03:46:27.910Z,7.00
2019-01-17T03:50:31.214Z,8.43
2019-01-17T03:54:34.495Z,13.73
2019-01-17T03:58:37.873Z,15.97
2019-01-17T04:02:41.580Z,10.67
2019-01-17T04:06:44.962Z,15.30
2019-01-17T04:10:48.752Z,13.27
2019-01-17T04:14:52.494Z,12.27
2019-01-17T04:18:55.778Z,24.40
2019-01-17T04:22:59.594Z,16.57
2019-01-17T04:27:03.324Z,15.57
2019-01-17T04:31:06.619Z,21.47
2019-01-17T04:35:09.971Z,30.77
2019-01-17T04:39:13.989Z,13.97
2019-01-17T04:43:17.702Z,20.90
2019-01-17T04:47:21.014Z,14.63
2019-01-17T04:51:24.307Z,23.20
2019-01-17T04:55:27.613Z,21.83
2019-01-17T04:59:31.338Z,19.07
2019-01-17T05:03:35.074Z,18.13
2019-01-17T05:07:38.870Z,35.10
2019-01-17T05:11:42.471Z,27.30
2019-01-17T05:15:45.753Z,34.50
2019-01-17T05:19:49.058Z,40.33
2019-01-17T05:23:52.350Z,34.83
2019-01-17T05:27:55.907Z,39.80
2019-01-17T05:31:59.694Z,41.97
2019-01-17T05:36:02.997Z,43.60
2019-01-17T05:40:10.618Z,41.10
2019-01-17T05:44:13.931Z,44.23
2019-01-17T05:48:17.655Z,51.30
2019-01-17T05:52:20.962Z,41.13
2019-01-17T05:56:24.246Z,42.37
2019-01-17T06:00:27.990Z,42.30
2019-01-17T06:04:31.277Z,37.50
2019-01-17T06:08:34.578Z,44.10
2019-01-17T06:12:37.877Z,41.97
2019-01-17T06:16:41.254Z,34.23
2019-01-17T06:20:44.808Z,39.40
2019-01-17T06:24:48.825Z,41.00
2019-01-17T06:28:52.562Z,26.73
2019-01-17T06:32:55.892Z,32.83
2019-01-17T06:36:59.610Z,39.57
2019-01-17T06:41:03.443Z,39.37
2019-01-17T06:45:06.812Z,27.93
2019-01-17T06:49:10.105Z,25.23
2019-01-17T06:53:13.386Z,33.27
2019-01-17T06:57:16.938Z,27.90
2019-01-17T07:01:20.226Z,38.27
2019-01-17T07:05:24.830Z,36.83
2019-01-17T07:09:28.546Z,39.63
2019-01-17T07:13:32.634Z,33.10
2019-01-17T07:17:35.994Z,25.90
2019-01-17T07:21:39.734Z,27.53
2019-01-17T07:25:43.279Z,24.87
2019-01-17T07:29:46.847Z,28.47
2019-01-17T07:33:50.262Z,23.03
2019-01-17T07:37:53.571Z,24.33
2019-01-17T07:41:56.877Z,32.90
2019-01-17T07:46:00.180Z,20.13
2019-01-17T07:50:05.342Z,22.97
2019-01-17T07:54:09.091Z,23.70
2019-01-17T07:58:12.454Z,29.20
2019-01-17T08:02:15.840Z,34.97
2019-01-17T08:06:19.634Z,22.17
2019-01-17T08:10:22.945Z,24.57
2019-01-17T08:14:26.231Z,24.07
2019-01-17T08:18:29.542Z,14.40
2019-01-17T08:22:33.156Z,18.90
2019-01-17T08:26:36.467Z,17.80
2019-01-17T08:30:40.283Z,22.03
2019-01-17T08:34:44.014Z,15.97
2019-01-17T08:38:47.634Z,14.37
2019-01-17T08:42:52.342Z,18.80
2019-01-17T08:46:55.630Z,16.37
2019-01-17T08:50:59.454Z,10.70
2019-01-17T08:55:02.810Z,9.60
2019-01-17T08:59:06.178Z,8.53
2019-01-17T09:03:09.463Z,9.90
2019-01-17T09:07:12.818Z,10.67
2019-01-17T09:11:16.231Z,13.23
2019-01-17T09:15:21.863Z,15.13
2019-01-17T09:19:25.177Z,12.90
2019-01-17T09:23:29.010Z,16.77
2019-01-17T09:27:32.756Z,16.80
2019-01-17T09:31:36.074Z,13.13
2019-01-17T09:35:39.368Z,11.40
2019-01-17T09:39:42.691Z,16.90
2019-01-17T09:43:46.843Z,12.60
2019-01-17T09:47:50.185Z,15.07
2019-01-17T09:51:53.694Z,14.40
2019-01-17T09:55:57.048Z,20.53
2019-01-17T10:00:00.383Z,17.70
2019-01-17T10:04:04.344Z,16.57
2019-01-17T10:08:08.271Z,15.20
2019-01-17T10:12:11.652Z,12.67
2019-01-17T10:16:58.937Z,13.10
2019-01-17T10:21:15.459Z,12.23
2019-01-17T10:25:56.236Z,7.30
2019-01-17T10:30:17.334Z,1.67
2019-01-17T10:34:36.707Z,1.00
2019-01-17T10:38:42.906Z,0.50
2019-01-17T10:42:59.788Z,0.50
2019-01-17T10:47:23.267Z,0.50
2019-01-17T10:51:53.095Z,0.60
2019-01-17T10:56:15.733Z,0.80
2019-01-17T11:00:35.548Z,0.57
2019-01-17T11:04:57.248Z,1.60
2019-01-17T11:09:27.479Z,1.23
2019-01-17T11:13:49.093Z,3.00
2019-01-17T11:17:58.890Z,5.23
2019-01-17T11:22:27.640Z,1.33
2019-01-17T11:26:56.332Z,5.93
2019-01-17T11:31:37.390Z,8.63
2019-01-17T11:35:59.951Z,9.03
2019-01-17T11:40:07.640Z,4.40
2019-01-17T11:45:01.089Z,9.80
2019-01-17T11:49:09.530Z,3.47
2019-01-17T11:53:34.324Z,6.40
2019-01-17T11:57:59.772Z,7.80
2019-01-17T12:02:57.191Z,11.40
2019-01-17T12:07:05.706Z,3.03
2019-01-17T12:11:09.053Z,4.60
2019-01-17T12:15:13.016Z,9.10
2019-01-17T12:19:16.786Z,4.80
2019-01-17T12:23:20.595Z,3.30
2019-01-17T12:27:23.911Z,7.17
2019-01-17T12:31:28.143Z,4.43
2019-01-17T12:35:31.470Z,3.20
2019-01-17T12:39:34.776Z,4.90
2019-01-17T12:43:38.156Z,3.53
2019-01-17T12:47:41.529Z,7.27
2019-01-17T12:51:45.721Z,3.90
2019-01-17T12:55:49.058Z,6.27
2019-01-17T12:59:52.852Z,6.30
2019-01-17T13:03:57.017Z,7.97
2019-01-17T13:08:00.806Z,7.10
2019-01-17T13:12:04.278Z,3.80
2019-01-17T13:16:07.680Z,4.53
2019-01-17T13:20:12.712Z,4.27
2019-01-17T13:24:16.124Z,3.13
2019-01-17T13:28:19.501Z,2.50
2019-01-17T13:32:22.893Z,8.27
2019-01-17T13:36:26.236Z,13.30
2019-01-17T13:40:30.062Z,9.00
2019-01-17T13:44:33.850Z,2.73
2019-01-17T13:48:37.455Z,11.80
2019-01-17T13:52:41.423Z,6.97
2019-01-17T13:56:45.357Z,6.07
2019-01-17T14:00:48.720Z,5.03
2019-01-17T14:04:52.043Z,3.67
2019-01-17T14:08:55.510Z,6.20
2019-01-17T14:12:58.959Z,2.70
2019-01-17T14:17:02.323Z,4.03
2019-01-17T14:21:06.091Z,2.80
2019-01-17T14:25:10.258Z,7.33
2019-01-17T14:29:13.874Z,1.77
2019-01-17T14:33:17.256Z,5.27
2019-01-17T14:37:21.012Z,5.70
2019-01-17T14:41:24.453Z,5.00
2019-01-17T14:45:27.760Z,2.17
2019-01-17T14:49:31.134Z,11.50
2019-01-17T14:53:35.033Z,9.80
2019-01-17T14:57:38.477Z,6.93
2019-01-17T15:01:41.968Z,16.27
2019-01-17T15:05:45.297Z,8.57
2019-01-17T15:09:48.570Z,9.23
2019-01-17T15:13:52.594Z,8.50
2019-01-17T15:17:55.878Z,11.53
2019-01-17T15:21:59.194Z,8.20
2019-01-17T15:26:02.658Z,6.27
2019-01-17T15:30:07.378Z,6.37
2019-01-17T15:34:10.646Z,3.37
2019-01-17T15:38:14.439Z,1.67
2019-01-17T15:42:18.016Z,5.10
2019-01-17T15:46:21.754Z,6.43
2019-01-17T15:50:25.549Z,5.27
2019-01-17T15:54:28.872Z,3.73
2019-01-17T15:58:32.590Z,4.83
2019-01-17T16:02:35.898Z,3.53
2019-01-17T16:06:39.490Z,6.67
2019-01-17T16:10:43.230Z,5.53
2019-01-17T16:14:46.517Z,1.70
2019-01-17T16:18:49.822Z,1.10
2019-01-17T16:22:53.275Z,1.50
2019-01-17T16:26:57.028Z,5.00
2019-01-17T16:31:00.308Z,7.03
2019-01-17T16:35:04.595Z,6.43
2019-01-17T16:39:09.782Z,5.00
2019-01-17T16:43:13.105Z,4.10
2019-01-17T16:47:16.832Z,5.70
2019-01-17T16:51:20.418Z,1.33
2019-01-17T16:55:24.938Z,2.53
2019-01-17T16:59:28.704Z,1.20
2019-01-17T17:03:31.986Z,6.80
2019-01-17T17:07:35.290Z,2.47
2019-01-17T17:11:38.570Z,1.00
2019-01-17T17:15:42.622Z,4.70
2019-01-17T17:19:46.337Z,5.97
2019-01-17T17:23:50.082Z,16.67
2019-01-17T17:27:55.723Z,7.37
2019-01-17T17:31:58.838Z,2.93
2019-01-17T17:36:02.190Z,3.53
2019-01-17T17:40:07.614Z,1.90
2019-01-17T17:44:10.898Z,2.73
2019-01-17T17:48:14.210Z,7.00
2019-01-17T17:52:17.566Z,2.77
2019-01-17T17:56:21.337Z,1.37
2019-01-17T18:00:28.298Z,2.97
2019-01-17T18:04:31.601Z,2.63
2019-01-17T18:08:34.890Z,2.70
2019-01-17T18:12:38.706Z,3.10
2019-01-17T18:16:41.994Z,2.13
2019-01-17T18:20:45.347Z,1.20
2019-01-17T18:24:48.630Z,4.67
2019-01-17T18:28:51.930Z,2.53
2019-01-17T18:32:55.535Z,3.80
2019-01-17T18:36:59.286Z,4.13
2019-01-17T18:41:02.633Z,2.57
2019-01-17T18:45:08.306Z,9.03
2019-01-17T18:49:12.758Z,5.83
2019-01-17T18:53:16.735Z,5.57
2019-01-17T18:57:21.347Z,14.63
2019-01-17T19:01:25.159Z,10.40
2019-01-17T19:05:28.898Z,4.10
2019-01-17T19:09:32.200Z,3.23
2019-01-17T19:13:36.091Z,6.43
2019-01-17T19:17:39.860Z,5.00
2019-01-17T19:21:43.958Z,3.20
2019-01-17T19:25:48.067Z,3.37
2019-01-17T19:29:51.354Z,4.30
2019-01-17T19:33:54.930Z,3.70
2019-01-17T19:37:58.656Z,4.00
2019-01-17T19:42:02.578Z,13.30
2019-01-17T19:46:07.354Z,5.83
2019-01-17T19:50:18.490Z,3.77
2019-01-17T19:54:22.168Z,9.33
2019-01-17T19:58:29.109Z,11.03
2019-01-17T20:02:32.078Z,5.20
2019-01-17T20:06:35.823Z,6.57
2019-01-17T20:10:39.542Z,10.07
2019-01-17T20:14:42.859Z,6.70
2019-01-17T20:18:46.577Z,8.80
2019-01-17T20:22:50.689Z,9.90
2019-01-17T20:26:54.420Z,5.47
2019-01-17T20:30:57.727Z,6.40
2019-01-17T20:35:01.006Z,5.00
2019-01-17T20:39:06.935Z,9.60
2019-01-17T20:43:10.726Z,5.73
2019-01-17T20:47:14.067Z,4.13
2019-01-17T20:51:17.346Z,5.03
2019-01-17T20:55:21.158Z,4.10
2019-01-17T20:59:24.766Z,20.73
2019-01-17T21:03:28.794Z,8.00
2019-01-17T21:07:32.077Z,6.10
2019-01-17T21:11:35.456Z,24.57
2019-01-17T21:15:39.248Z,9.87
2019-01-17T21:19:42.552Z,10.97
2019-01-17T21:23:46.142Z,5.77
2019-01-17T21:27:49.451Z,7.07
2019-01-17T21:31:53.178Z,11.80
2019-01-17T21:35:56.911Z,6.47
2019-01-17T21:40:00.570Z,5.90
2019-01-17T21:44:04.600Z,1.43
2019-01-17T21:48:08.559Z,6.50
2019-01-17T21:52:12.370Z,5.03
2019-01-17T21:56:15.648Z,3.53
2019-01-17T22:00:20.038Z,4.53
2019-01-17T22:04:23.619Z,5.17
2019-01-17T22:08:26.914Z,5.57
2019-01-17T22:12:30.630Z,5.00
2019-01-17T22:16:33.940Z,15.47
2019-01-17T22:20:38.006Z,7.33
2019-01-17T22:24:41.743Z,3.53
2019-01-17T22:28:45.518Z,6.30
2019-01-17T22:32:49.073Z,4.67
2019-01-17T22:36:52.798Z,3.30
2019-01-17T22:40:56.101Z,3.33
2019-01-17T22:44:59.384Z,2.80
2019-01-17T22:49:02.690Z,2.10
2019-01-17T22:53:06.686Z,3.60
2019-01-17T22:57:09.982Z,3.27
2019-01-17T23:01:20.758Z,2.87
2019-01-17T23:05:24.334Z,7.47
2019-01-17T23:09:28.054Z,7.17
2019-01-17T23:13:31.874Z,5.10
2019-01-17T23:17:35.160Z,3.17
2019-01-17T23:21:38.966Z,4.47
2019-01-17T23:25:42.246Z,7.60
2019-01-17T23:29:45.547Z,8.30
2019-01-17T23:33:49.372Z,2.97
2019-01-17T23:37:53.201Z,29.43
2019-01-17T23:41:56.914Z,4.60
2019-01-17T23:46:00.511Z,4.13
2019-01-17T23:50:04.737Z,6.83
2019-01-17T23:54:08.044Z,6.87
2019-01-17T23:58:11.474Z,6.73
